sensor_id;sensor_type;location;lat;lon;timestamp;pressure;altitude;pressure_sealevel;temperature;humidity
16148;BME280;8179;59.364;18.018;2024-02-21T00:02:06;100776.16;;;0.43;100.00
16148;BME280;8179;59.364;18.018;2024-02-21T00:04:34;100783.78;;;0.39;100.00
16148;BME280;8179;59.364;18.018;2024-02-21T00:07:02;100773.88;;;0.40;100.00
16148;BME280;8179;59.364;18.018;2024-02-21T00:09:29;100763.63;;;0.43;100.00
16148;BME280;8179;59.364;18.018;2024-02-21T00:11:56;100757.00;;;0.39;100.00
16148;BME280;8179;59.364;18.018;2024-02-21T00:14:24;100766.91;;;0.45;100.00
16148;BME280;8179;59.364;18.018;2024-02-21T00:16:50;100768.13;;;0.43;100.00
16148;BME280;8179;59.364;18.018;2024-02-21T00:19:17;100750.03;;;0.38;100.00
16148;BME280;8179;59.364;18.018;2024-02-21T00:21:46;100752.50;;;0.40;100.00
16148;BME280;8179;59.364;18.018;2024-02-21T00:24:12;100740.16;;;0.39;100.00
16148;BME280;8179;59.364;18.018;2024-02-21T00:26:39;100742.81;;;0.39;100.00
16148;BME280;8179;59.364;18.018;2024-02-21T00:29:06;100742.81;;;0.45;100.00
16148;BME280;8179;59.364;18.018;2024-02-21T00:31:33;100723.06;;;0.40;100.00
16148;BME280;8179;59.364;18.018;2024-02-21T00:34:00;100731.28;;;0.45;100.00
16148;BME280;8179;59.364;18.018;2024-02-21T00:36:27;100730.28;;;0.39;100.00
16148;BME280;8179;59.364;18.018;2024-02-21T00:38:55;100723.66;;;0.42;100.00
16148;BME280;8179;59.364;18.018;2024-02-21T00:41:22;100728.63;;;0.45;100.00
16148;BME280;8179;59.364;18.018;2024-02-21T00:43:49;100724.91;;;0.46;100.00
16148;BME280;8179;59.364;18.018;2024-02-21T00:46:16;100729.44;;;0.45;100.00
16148;BME280;8179;59.364;18.018;2024-02-21T00:48:42;100721.81;;;0.49;100.00
16148;BME280;8179;59.364;18.018;2024-02-21T00:51:09;100718.13;;;0.50;100.00
16148;BME280;8179;59.364;18.018;2024-02-21T00:53:36;100712.56;;;0.51;100.00
16148;BME280;8179;59.364;18.018;2024-02-21T00:56:06;100700.38;;;0.55;100.00
16148;BME280;8179;59.364;18.018;2024-02-21T00:58:32;100695.44;;;0.59;100.00
16148;BME280;8179;59.364;18.018;2024-02-21T01:01:00;100692.56;;;0.61;100.00
16148;BME280;8179;59.364;18.018;2024-02-21T01:03:27;100679.78;;;0.63;100.00
16148;BME280;8179;59.364;18.018;2024-02-21T01:05:54;100674.44;;;0.63;100.00
16148;BME280;8179;59.364;18.018;2024-02-21T01:08:21;100674.03;;;0.66;100.00
16148;BME280;8179;59.364;18.018;2024-02-21T01:10:48;100673.19;;;0.65;100.00
16148;BME280;8179;59.364;18.018;2024-02-21T01:13:16;100664.34;;;0.65;100.00
16148;BME280;8179;59.364;18.018;2024-02-21T01:15:43;100662.28;;;0.67;100.00
16148;BME280;8179;59.364;18.018;2024-02-21T01:18:10;100662.88;;;0.69;100.00
16148;BME280;8179;59.364;18.018;2024-02-21T01:20:36;100654.22;;;0.73;100.00
16148;BME280;8179;59.364;18.018;2024-02-21T01:23:03;100639.00;;;0.67;100.00
16148;BME280;8179;59.364;18.018;2024-02-21T01:25:30;100634.66;;;0.73;100.00
16148;BME280;8179;59.364;18.018;2024-02-21T01:27:57;100632.84;;;0.67;100.00
16148;BME280;8179;59.364;18.018;2024-02-21T01:30:25;100623.78;;;0.68;100.00
16148;BME280;8179;59.364;18.018;2024-02-21T01:32:52;100621.91;;;0.68;100.00
16148;BME280;8179;59.364;18.018;2024-02-21T01:35:19;100620.47;;;0.72;100.00
16148;BME280;8179;59.364;18.018;2024-02-21T01:37:46;100618.44;;;0.68;100.00
16148;BME280;8179;59.364;18.018;2024-02-21T01:40:13;100606.91;;;0.67;100.00
16148;BME280;8179;59.364;18.018;2024-02-21T01:42:40;100610.19;;;0.69;100.00
16148;BME280;8179;59.364;18.018;2024-02-21T01:45:07;100600.28;;;0.70;100.00
16148;BME280;8179;59.364;18.018;2024-02-21T01:47:37;100601.06;;;0.77;100.00
16148;BME280;8179;59.364;18.018;2024-02-21T01:50:04;100603.38;;;0.73;100.00
16148;BME280;8179;59.364;18.018;2024-02-21T01:52:32;100596.97;;;0.74;100.00
16148;BME280;8179;59.364;18.018;2024-02-21T01:55:01;100587.69;;;0.77;100.00
16148;BME280;8179;59.364;18.018;2024-02-21T01:57:28;100582.16;;;0.78;100.00
16148;BME280;8179;59.364;18.018;2024-02-21T01:59:55;100580.88;;;0.81;100.00
16148;BME280;8179;59.364;18.018;2024-02-21T02:02:22;100559.91;;;0.78;100.00
16148;BME280;8179;59.364;18.018;2024-02-21T02:04:51;100564.38;;;0.84;100.00
16148;BME280;8179;59.364;18.018;2024-02-21T02:07:18;100569.75;;;0.84;100.00
16148;BME280;8179;59.364;18.018;2024-02-21T02:09:45;100560.69;;;0.85;100.00
16148;BME280;8179;59.364;18.018;2024-02-21T02:12:12;100552.03;;;0.83;100.00
16148;BME280;8179;59.364;18.018;2024-02-21T02:14:39;100553.91;;;0.82;100.00
16148;BME280;8179;59.364;18.018;2024-02-21T02:17:06;100531.66;;;0.82;100.00
16148;BME280;8179;59.364;18.018;2024-02-21T02:19:34;100525.72;;;0.80;100.00
16148;BME280;8179;59.364;18.018;2024-02-21T02:22:09;100517.91;;;0.78;100.00
16148;BME280;8179;59.364;18.018;2024-02-21T02:24:37;100530.63;;;0.83;100.00
16148;BME280;8179;59.364;18.018;2024-02-21T02:27:04;100523.22;;;0.85;100.00
16148;BME280;8179;59.364;18.018;2024-02-21T02:29:32;100524.19;;;0.91;100.00
16148;BME280;8179;59.364;18.018;2024-02-21T02:31:59;100531.00;;;0.93;100.00
16148;BME280;8179;59.364;18.018;2024-02-21T02:34:26;100536.31;;;1.00;100.00
16148;BME280;8179;59.364;18.018;2024-02-21T02:36:52;100522.09;;;0.99;100.00
16148;BME280;8179;59.364;18.018;2024-02-21T02:39:20;100515.25;;;1.03;100.00
16148;BME280;8179;59.364;18.018;2024-02-21T02:41:48;100525.13;;;1.03;100.00
16148;BME280;8179;59.364;18.018;2024-02-21T02:44:15;100531.72;;;1.07;100.00
16148;BME280;8179;59.364;18.018;2024-02-21T02:46:42;100524.72;;;1.06;100.00
16148;BME280;8179;59.364;18.018;2024-02-21T02:49:09;100524.28;;;1.09;100.00
16148;BME280;8179;59.364;18.018;2024-02-21T02:51:41;100526.13;;;1.08;100.00
16148;BME280;8179;59.364;18.018;2024-02-21T02:54:08;100521.38;;;1.10;100.00
16148;BME280;8179;59.364;18.018;2024-02-21T02:56:36;100527.53;;;1.11;100.00
16148;BME280;8179;59.364;18.018;2024-02-21T02:59:04;100521.78;;;1.14;100.00
16148;BME280;8179;59.364;18.018;2024-02-21T03:01:33;100518.88;;;1.16;100.00
16148;BME280;8179;59.364;18.018;2024-02-21T03:04:01;100520.19;;;1.06;100.00
16148;BME280;8179;59.364;18.018;2024-02-21T03:06:28;100505.72;;;1.14;100.00
16148;BME280;8179;59.364;18.018;2024-02-21T03:08:55;100505.25;;;1.17;100.00
16148;BME280;8179;59.364;18.018;2024-02-21T03:11:22;100500.28;;;1.21;100.00
16148;BME280;8179;59.364;18.018;2024-02-21T03:13:54;100499.25;;;1.22;100.00
16148;BME280;8179;59.364;18.018;2024-02-21T03:16:23;100491.34;;;1.27;100.00
16148;BME280;8179;59.364;18.018;2024-02-21T03:18:50;100487.03;;;1.26;100.00
16148;BME280;8179;59.364;18.018;2024-02-21T03:21:18;100482.72;;;1.25;100.00
16148;BME280;8179;59.364;18.018;2024-02-21T03:23:45;100479.22;;;1.24;100.00
16148;BME280;8179;59.364;18.018;2024-02-21T03:26:11;100475.69;;;1.30;100.00
16148;BME280;8179;59.364;18.018;2024-02-21T03:28:42;100427.66;;;1.10;100.00
16148;BME280;8179;59.364;18.018;2024-02-21T03:31:11;100467.59;;;1.37;100.00
16148;BME280;8179;59.364;18.018;2024-02-21T03:33:39;100453.59;;;1.35;100.00
16148;BME280;8179;59.364;18.018;2024-02-21T03:36:06;100454.78;;;1.39;100.00
16148;BME280;8179;59.364;18.018;2024-02-21T03:38:33;100444.88;;;1.40;100.00
16148;BME280;8179;59.364;18.018;2024-02-21T03:41:00;100446.75;;;1.39;100.00
16148;BME280;8179;59.364;18.018;2024-02-21T03:43:27;100443.84;;;1.41;100.00
16148;BME280;8179;59.364;18.018;2024-02-21T03:45:54;100436.66;;;1.41;100.00
16148;BME280;8179;59.364;18.018;2024-02-21T03:48:21;100445.03;;;1.45;100.00
16148;BME280;8179;59.364;18.018;2024-02-21T03:50:49;100434.31;;;1.45;100.00
16148;BME280;8179;59.364;18.018;2024-02-21T03:53:16;100440.28;;;1.47;100.00
16148;BME280;8179;59.364;18.018;2024-02-21T03:55:43;100437.81;;;1.45;100.00
16148;BME280;8179;59.364;18.018;2024-02-21T03:58:09;100438.56;;;1.52;100.00
16148;BME280;8179;59.364;18.018;2024-02-21T04:00:36;100437.28;;;1.55;100.00
16148;BME280;8179;59.364;18.018;2024-02-21T04:03:04;100433.59;;;1.56;100.00
16148;BME280;8179;59.364;18.018;2024-02-21T04:05:32;100428.00;;;1.57;100.00
16148;BME280;8179;59.364;18.018;2024-02-21T04:08:03;100420.78;;;1.58;100.00
16148;BME280;8179;59.364;18.018;2024-02-21T04:10:30;100407.97;;;1.60;100.00
16148;BME280;8179;59.364;18.018;2024-02-21T04:12:57;100398.75;;;1.56;100.00
16148;BME280;8179;59.364;18.018;2024-02-21T04:15:24;100400.75;;;1.60;100.00
16148;BME280;8179;59.364;18.018;2024-02-21T04:17:51;100405.06;;;1.61;100.00
16148;BME280;8179;59.364;18.018;2024-02-21T04:20:18;100399.69;;;1.61;100.00
16148;BME280;8179;59.364;18.018;2024-02-21T04:22:45;100392.03;;;1.65;100.00
16148;BME280;8179;59.364;18.018;2024-02-21T04:25:14;100391.81;;;1.67;100.00
16148;BME280;8179;59.364;18.018;2024-02-21T04:27:41;100391.16;;;1.71;100.00
16148;BME280;8179;59.364;18.018;2024-02-21T04:30:09;100391.72;;;1.73;100.00
16148;BME280;8179;59.364;18.018;2024-02-21T04:32:36;100380.78;;;1.75;100.00
16148;BME280;8179;59.364;18.018;2024-02-21T04:35:03;100384.28;;;1.75;100.00
16148;BME280;8179;59.364;18.018;2024-02-21T04:37:30;100380.09;;;1.79;100.00
16148;BME280;8179;59.364;18.018;2024-02-21T04:39:57;100381.50;;;1.82;100.00
16148;BME280;8179;59.364;18.018;2024-02-21T04:42:25;100371.03;;;1.80;100.00
16148;BME280;8179;59.364;18.018;2024-02-21T04:44:52;100371.41;;;1.84;100.00
16148;BME280;8179;59.364;18.018;2024-02-21T04:47:19;100364.19;;;1.84;100.00
16148;BME280;8179;59.364;18.018;2024-02-21T04:49:46;100370.94;;;1.87;100.00
16148;BME280;8179;59.364;18.018;2024-02-21T04:52:13;100363.94;;;1.86;100.00
16148;BME280;8179;59.364;18.018;2024-02-21T04:54:40;100362.22;;;1.91;100.00
16148;BME280;8179;59.364;18.018;2024-02-21T04:57:06;100352.91;;;1.94;100.00
16148;BME280;8179;59.364;18.018;2024-02-21T04:59:37;100359.66;;;1.97;100.00
16148;BME280;8179;59.364;18.018;2024-02-21T05:02:04;100354.09;;;1.98;100.00
16148;BME280;8179;59.364;18.018;2024-02-21T05:04:31;100357.34;;;2.00;100.00
16148;BME280;8179;59.364;18.018;2024-02-21T05:06:59;100343.56;;;1.97;100.00
16148;BME280;8179;59.364;18.018;2024-02-21T05:09:26;100351.75;;;2.02;100.00
16148;BME280;8179;59.364;18.018;2024-02-21T05:11:53;100343.28;;;2.05;100.00
16148;BME280;8179;59.364;18.018;2024-02-21T05:14:20;100350.03;;;2.07;100.00
16148;BME280;8179;59.364;18.018;2024-02-21T05:16:48;100345.25;;;2.09;100.00
16148;BME280;8179;59.364;18.018;2024-02-21T05:19:15;100342.31;;;2.11;100.00
16148;BME280;8179;59.364;18.018;2024-02-21T05:21:42;100335.94;;;2.12;100.00
16148;BME280;8179;59.364;18.018;2024-02-21T05:24:09;100329.28;;;2.14;100.00
16148;BME280;8179;59.364;18.018;2024-02-21T05:26:35;100338.16;;;2.15;100.00
16148;BME280;8179;59.364;18.018;2024-02-21T05:29:02;100324.28;;;2.18;100.00
16148;BME280;8179;59.364;18.018;2024-02-21T05:31:54;100321.59;;;2.18;100.00
16148;BME280;8179;59.364;18.018;2024-02-21T05:34:23;100317.88;;;2.19;100.00
16148;BME280;8179;59.364;18.018;2024-02-21T05:36:50;100304.69;;;2.17;100.00
16148;BME280;8179;59.364;18.018;2024-02-21T05:39:18;100312.28;;;2.20;100.00
16148;BME280;8179;59.364;18.018;2024-02-21T05:41:45;100304.00;;;2.22;100.00
16148;BME280;8179;59.364;18.018;2024-02-21T05:44:12;100300.03;;;2.25;100.00
16148;BME280;8179;59.364;18.018;2024-02-21T05:46:39;100297.72;;;2.28;100.00
16148;BME280;8179;59.364;18.018;2024-02-21T05:49:05;100299.34;;;2.29;100.00
16148;BME280;8179;59.364;18.018;2024-02-21T05:51:37;100289.19;;;2.31;100.00
16148;BME280;8179;59.364;18.018;2024-02-21T05:54:04;100290.63;;;2.34;100.00
16148;BME280;8179;59.364;18.018;2024-02-21T05:56:31;100278.00;;;2.34;100.00
16148;BME280;8179;59.364;18.018;2024-02-21T05:58:57;100272.53;;;2.29;100.00
16148;BME280;8179;59.364;18.018;2024-02-21T06:01:24;100267.38;;;2.39;100.00
16148;BME280;8179;59.364;18.018;2024-02-21T06:03:51;100269.03;;;2.40;100.00
16148;BME280;8179;59.364;18.018;2024-02-21T06:06:18;100258.06;;;2.42;100.00
16148;BME280;8179;59.364;18.018;2024-02-21T06:08:48;100265.63;;;2.45;100.00
16148;BME280;8179;59.364;18.018;2024-02-21T06:11:15;100263.56;;;2.47;100.00
16148;BME280;8179;59.364;18.018;2024-02-21T06:13:42;100263.56;;;2.47;100.00
16148;BME280;8179;59.364;18.018;2024-02-21T06:16:09;100268.44;;;2.50;100.00
16148;BME280;8179;59.364;18.018;2024-02-21T06:18:36;100260.41;;;2.50;100.00
16148;BME280;8179;59.364;18.018;2024-02-21T06:21:03;100255.03;;;2.50;100.00
16148;BME280;8179;59.364;18.018;2024-02-21T06:23:30;100259.09;;;2.53;100.00
16148;BME280;8179;59.364;18.018;2024-02-21T06:25:58;100267.28;;;2.58;100.00
16148;BME280;8179;59.364;18.018;2024-02-21T06:28:25;100257.84;;;2.55;100.00
16148;BME280;8179;59.364;18.018;2024-02-21T06:30:52;100267.84;;;2.60;100.00
16148;BME280;8179;59.364;18.018;2024-02-21T06:33:19;100166.72;;;2.02;100.00
16148;BME280;8179;59.364;18.018;2024-02-21T06:35:50;100260.75;;;2.65;100.00
16148;BME280;8179;59.364;18.018;2024-02-21T06:38:18;100256.44;;;2.64;100.00
16148;BME280;8179;59.364;18.018;2024-02-21T06:40:45;100257.00;;;2.66;100.00
16148;BME280;8179;59.364;18.018;2024-02-21T06:43:18;100254.91;;;2.68;100.00
16148;BME280;8179;59.364;18.018;2024-02-21T06:45:46;100240.91;;;2.66;100.00
16148;BME280;8179;59.364;18.018;2024-02-21T06:48:16;100246.94;;;2.73;100.00
16148;BME280;8179;59.364;18.018;2024-02-21T06:50:44;100234.94;;;2.76;100.00
16148;BME280;8179;59.364;18.018;2024-02-21T06:53:12;100187.81;;;2.45;100.00
16148;BME280;8179;59.364;18.018;2024-02-21T06:55:39;100134.69;;;2.18;100.00
16148;BME280;8179;59.364;18.018;2024-02-21T06:58:05;100224.09;;;2.83;100.00
16148;BME280;8179;59.364;18.018;2024-02-21T07:00:38;100228.97;;;2.86;100.00
16148;BME280;8179;59.364;18.018;2024-02-21T07:03:05;100223.59;;;2.86;100.00
16148;BME280;8179;59.364;18.018;2024-02-21T07:05:32;100219.28;;;2.85;100.00
16148;BME280;8179;59.364;18.018;2024-02-21T07:07:59;100210.75;;;2.88;100.00
16148;BME280;8179;59.364;18.018;2024-02-21T07:10:26;100205.72;;;2.91;100.00
16148;BME280;8179;59.364;18.018;2024-02-21T07:12:54;100207.69;;;2.96;100.00
16148;BME280;8179;59.364;18.018;2024-02-21T07:15:24;100201.84;;;2.99;100.00
16148;BME280;8179;59.364;18.018;2024-02-21T07:17:55;100198.91;;;3.00;100.00
16148;BME280;8179;59.364;18.018;2024-02-21T07:20:22;100196.81;;;3.02;100.00
16148;BME280;8179;59.364;18.018;2024-02-21T07:22:49;100198.47;;;3.03;100.00
16148;BME280;8179;59.364;18.018;2024-02-21T07:25:16;100094.16;;;2.43;100.00
16148;BME280;8179;59.364;18.018;2024-02-21T07:27:44;100161.34;;;2.89;100.00
16148;BME280;8179;59.364;18.018;2024-02-21T07:30:11;100194.47;;;3.06;100.00
16148;BME280;8179;59.364;18.018;2024-02-21T07:32:38;100172.75;;;3.08;100.00
16148;BME280;8179;59.364;18.018;2024-02-21T07:35:07;100180.09;;;3.12;100.00
16148;BME280;8179;59.364;18.018;2024-02-21T07:37:36;100181.59;;;3.08;100.00
16148;BME280;8179;59.364;18.018;2024-02-21T07:40:04;100185.47;;;3.12;100.00
16148;BME280;8179;59.364;18.018;2024-02-21T07:42:31;100175.66;;;3.06;100.00
16148;BME280;8179;59.364;18.018;2024-02-21T07:44:58;100187.09;;;3.13;100.00
16148;BME280;8179;59.364;18.018;2024-02-21T07:47:25;100177.41;;;3.12;100.00
16148;BME280;8179;59.364;18.018;2024-02-21T07:49:52;100166.56;;;3.07;100.00
16148;BME280;8179;59.364;18.018;2024-02-21T07:52:21;100178.63;;;3.21;100.00
16148;BME280;8179;59.364;18.018;2024-02-21T07:54:48;100149.50;;;3.01;100.00
16148;BME280;8179;59.364;18.018;2024-02-21T07:57:14;100178.75;;;3.26;100.00
16148;BME280;8179;59.364;18.018;2024-02-21T07:59:41;100164.50;;;3.26;100.00
16148;BME280;8179;59.364;18.018;2024-02-21T08:02:08;100169.13;;;3.30;100.00
16148;BME280;8179;59.364;18.018;2024-02-21T08:04:35;100170.03;;;3.36;100.00
16148;BME280;8179;59.364;18.018;2024-02-21T08:07:02;100074.00;;;2.69;100.00
16148;BME280;8179;59.364;18.018;2024-02-21T08:09:31;100175.53;;;3.41;100.00
16148;BME280;8179;59.364;18.018;2024-02-21T08:11:57;100176.34;;;3.42;100.00
16148;BME280;8179;59.364;18.018;2024-02-21T08:14:24;100184.72;;;3.45;100.00
16148;BME280;8179;59.364;18.018;2024-02-21T08:16:50;100183.44;;;3.48;100.00
16148;BME280;8179;59.364;18.018;2024-02-21T08:19:18;100174.06;;;3.50;100.00
16148;BME280;8179;59.364;18.018;2024-02-21T08:21:46;100178.38;;;3.51;100.00
16148;BME280;8179;59.364;18.018;2024-02-21T08:24:13;100168.38;;;3.47;100.00
16148;BME280;8179;59.364;18.018;2024-02-21T08:26:42;100180.84;;;3.53;100.00
16148;BME280;8179;59.364;18.018;2024-02-21T08:29:10;100180.84;;;3.53;100.00
16148;BME280;8179;59.364;18.018;2024-02-21T08:31:37;100158.00;;;3.39;100.00
16148;BME280;8179;59.364;18.018;2024-02-21T08:34:04;100134.34;;;3.24;100.00
16148;BME280;8179;59.364;18.018;2024-02-21T08:36:32;100182.31;;;3.61;100.00
16148;BME280;8179;59.364;18.018;2024-02-21T08:39:00;100182.06;;;3.62;100.00
16148;BME280;8179;59.364;18.018;2024-02-21T08:41:29;100170.09;;;3.53;100.00
16148;BME280;8179;59.364;18.018;2024-02-21T08:43:58;100175.97;;;3.67;100.00
16148;BME280;8179;59.364;18.018;2024-02-21T08:46:33;100170.34;;;3.68;100.00
16148;BME280;8179;59.364;18.018;2024-02-21T08:49:00;100147.38;;;3.61;100.00
16148;BME280;8179;59.364;18.018;2024-02-21T08:51:28;100180.34;;;3.73;100.00
16148;BME280;8179;59.364;18.018;2024-02-21T08:53:55;100176.38;;;3.75;100.00
16148;BME280;8179;59.364;18.018;2024-02-21T08:56:22;100168.63;;;3.79;100.00
16148;BME280;8179;59.364;18.018;2024-02-21T08:58:49;100166.03;;;3.84;100.00
16148;BME280;8179;59.364;18.018;2024-02-21T09:01:16;100163.91;;;3.86;100.00
16148;BME280;8179;59.364;18.018;2024-02-21T09:03:44;100160.22;;;3.92;100.00
16148;BME280;8179;59.364;18.018;2024-02-21T09:06:12;100151.75;;;4.00;100.00
16148;BME280;8179;59.364;18.018;2024-02-21T09:08:40;100129.66;;;3.98;100.00
16148;BME280;8179;59.364;18.018;2024-02-21T09:11:08;100164.63;;;4.15;100.00
16148;BME280;8179;59.364;18.018;2024-02-21T09:13:35;100152.88;;;4.21;100.00
16148;BME280;8179;59.364;18.018;2024-02-21T09:16:02;100147.56;;;4.26;100.00
16148;BME280;8179;59.364;18.018;2024-02-21T09:18:30;100109.28;;;4.02;100.00
16148;BME280;8179;59.364;18.018;2024-02-21T09:20:58;100141.44;;;4.31;100.00
16148;BME280;8179;59.364;18.018;2024-02-21T09:23:25;100136.94;;;4.36;100.00
16148;BME280;8179;59.364;18.018;2024-02-21T09:25:52;100107.72;;;4.23;100.00
16148;BME280;8179;59.364;18.018;2024-02-21T09:28:20;100128.38;;;4.39;100.00
16148;BME280;8179;59.364;18.018;2024-02-21T09:30:48;100113.22;;;4.33;100.00
16148;BME280;8179;59.364;18.018;2024-02-21T09:33:16;100123.28;;;4.43;100.00
16148;BME280;8179;59.364;18.018;2024-02-21T09:35:43;100116.34;;;4.47;100.00
16148;BME280;8179;59.364;18.018;2024-02-21T09:38:11;100124.25;;;4.54;100.00
16148;BME280;8179;59.364;18.018;2024-02-21T09:40:39;100115.44;;;4.58;100.00
16148;BME280;8179;59.364;18.018;2024-02-21T09:43:08;100108.16;;;4.59;100.00
16148;BME280;8179;59.364;18.018;2024-02-21T09:45:34;100107.41;;;4.63;100.00
16148;BME280;8179;59.364;18.018;2024-02-21T09:48:16;100107.47;;;4.68;100.00
16148;BME280;8179;59.364;18.018;2024-02-21T09:50:47;100109.91;;;4.70;100.00
16148;BME280;8179;59.364;18.018;2024-02-21T09:53:18;100073.56;;;4.51;100.00
16148;BME280;8179;59.364;18.018;2024-02-21T09:55:46;100104.50;;;4.70;100.00
16148;BME280;8179;59.364;18.018;2024-02-21T09:58:15;100105.13;;;4.77;100.00
16148;BME280;8179;59.364;18.018;2024-02-21T10:00:42;100108.19;;;4.86;100.00
16148;BME280;8179;59.364;18.018;2024-02-21T10:03:10;100103.13;;;4.89;100.00
16148;BME280;8179;59.364;18.018;2024-02-21T10:05:38;100104.00;;;4.95;100.00
16148;BME280;8179;59.364;18.018;2024-02-21T10:08:06;100087.50;;;4.91;100.00
16148;BME280;8179;59.364;18.018;2024-02-21T10:10:42;100105.69;;;5.01;100.00
16148;BME280;8179;59.364;18.018;2024-02-21T10:13:23;100102.66;;;4.97;100.00
16148;BME280;8179;59.364;18.018;2024-02-21T10:16:00;100089.81;;;5.05;100.00
16148;BME280;8179;59.364;18.018;2024-02-21T10:18:27;100091.50;;;5.11;100.00
16148;BME280;8179;59.364;18.018;2024-02-21T10:21:00;100087.78;;;5.17;100.00
16148;BME280;8179;59.364;18.018;2024-02-21T10:23:27;100090.53;;;5.22;100.00
16148;BME280;8179;59.364;18.018;2024-02-21T10:26:04;100078.97;;;5.27;100.00
16148;BME280;8179;59.364;18.018;2024-02-21T10:28:31;100088.44;;;5.29;100.00
16148;BME280;8179;59.364;18.018;2024-02-21T10:30:58;100083.50;;;5.21;100.00
16148;BME280;8179;59.364;18.018;2024-02-21T10:33:25;100074.84;;;5.19;100.00
16148;BME280;8179;59.364;18.018;2024-02-21T10:35:53;100089.47;;;5.28;100.00
16148;BME280;8179;59.364;18.018;2024-02-21T10:38:20;100076.84;;;5.29;100.00
16148;BME280;8179;59.364;18.018;2024-02-21T10:40:47;100080.56;;;5.22;100.00
16148;BME280;8179;59.364;18.018;2024-02-21T10:43:20;100079.22;;;5.25;100.00
16148;BME280;8179;59.364;18.018;2024-02-21T10:45:47;100083.53;;;5.26;100.00
16148;BME280;8179;59.364;18.018;2024-02-21T10:48:15;100082.78;;;5.31;100.00
16148;BME280;8179;59.364;18.018;2024-02-21T10:50:56;100020.47;;;4.95;100.00
16148;BME280;8179;59.364;18.018;2024-02-21T10:53:32;100065.81;;;5.30;100.00
16148;BME280;8179;59.364;18.018;2024-02-21T10:56:09;100067.69;;;5.30;100.00
16148;BME280;8179;59.364;18.018;2024-02-21T10:58:41;100058.53;;;5.31;100.00
16148;BME280;8179;59.364;18.018;2024-02-21T11:01:10;100055.03;;;5.30;100.00
16148;BME280;8179;59.364;18.018;2024-02-21T11:03:38;100058.56;;;5.36;100.00
16148;BME280;8179;59.364;18.018;2024-02-21T11:06:06;100056.13;;;5.34;100.00
16148;BME280;8179;59.364;18.018;2024-02-21T11:08:34;100049.03;;;5.28;100.00
16148;BME280;8179;59.364;18.018;2024-02-21T11:11:00;100043.44;;;5.30;100.00
16148;BME280;8179;59.364;18.018;2024-02-21T11:13:31;100048.56;;;5.31;100.00
16148;BME280;8179;59.364;18.018;2024-02-21T11:16:11;100052.81;;;5.27;100.00
16148;BME280;8179;59.364;18.018;2024-02-21T11:18:38;100040.69;;;5.24;100.00
16148;BME280;8179;59.364;18.018;2024-02-21T11:21:05;100053.91;;;5.26;100.00
16148;BME280;8179;59.364;18.018;2024-02-21T11:23:32;100057.06;;;5.18;100.00
16148;BME280;8179;59.364;18.018;2024-02-21T11:26:06;100050.09;;;5.22;100.00
16148;BME280;8179;59.364;18.018;2024-02-21T11:28:33;100038.75;;;5.20;100.00
16148;BME280;8179;59.364;18.018;2024-02-21T11:31:07;100049.50;;;5.15;100.00
16148;BME280;8179;59.364;18.018;2024-02-21T11:33:36;100026.88;;;5.16;100.00
16148;BME280;8179;59.364;18.018;2024-02-21T11:36:05;100030.44;;;5.27;100.00
16148;BME280;8179;59.364;18.018;2024-02-21T11:38:32;100019.66;;;5.27;100.00
16148;BME280;8179;59.364;18.018;2024-02-21T11:40:59;100031.34;;;5.37;100.00
16148;BME280;8179;59.364;18.018;2024-02-21T11:43:26;100026.81;;;5.43;100.00
16148;BME280;8179;59.364;18.018;2024-02-21T11:45:59;100024.94;;;5.48;100.00
16148;BME280;8179;59.364;18.018;2024-02-21T11:48:28;100027.38;;;5.45;100.00
16148;BME280;8179;59.364;18.018;2024-02-21T11:50:56;100019.28;;;5.45;100.00
16148;BME280;8179;59.364;18.018;2024-02-21T11:53:23;100023.09;;;5.54;100.00
16148;BME280;8179;59.364;18.018;2024-02-21T11:55:52;100020.97;;;5.56;100.00
16148;BME280;8179;59.364;18.018;2024-02-21T11:58:21;100016.63;;;5.50;100.00
16148;BME280;8179;59.364;18.018;2024-02-21T12:00:48;100007.16;;;5.47;100.00
16148;BME280;8179;59.364;18.018;2024-02-21T12:03:15;100020.41;;;5.54;100.00
16148;BME280;8179;59.364;18.018;2024-02-21T12:05:42;100024.47;;;5.57;100.00
16148;BME280;8179;59.364;18.018;2024-02-21T12:08:10;100031.75;;;5.56;100.00
16148;BME280;8179;59.364;18.018;2024-02-21T12:10:37;100020.38;;;5.49;100.00
16148;BME280;8179;59.364;18.018;2024-02-21T12:13:07;100019.56;;;5.48;100.00
16148;BME280;8179;59.364;18.018;2024-02-21T12:15:35;100017.44;;;5.50;100.00
16148;BME280;8179;59.364;18.018;2024-02-21T12:18:02;100011.78;;;5.52;100.00
16148;BME280;8179;59.364;18.018;2024-02-21T12:20:28;100011.81;;;5.57;100.00
16148;BME280;8179;59.364;18.018;2024-02-21T12:23:00;100013.41;;;5.53;100.00
16148;BME280;8179;59.364;18.018;2024-02-21T12:25:28;100009.34;;;5.50;100.00
16148;BME280;8179;59.364;18.018;2024-02-21T12:27:55;100015.81;;;5.55;100.00
16148;BME280;8179;59.364;18.018;2024-02-21T12:30:22;100016.84;;;5.48;100.00
16148;BME280;8179;59.364;18.018;2024-02-21T12:32:49;100018.19;;;5.46;100.00
16148;BME280;8179;59.364;18.018;2024-02-21T12:35:16;100012.81;;;5.46;100.00
16148;BME280;8179;59.364;18.018;2024-02-21T12:37:43;100010.66;;;5.48;100.00
16148;BME280;8179;59.364;18.018;2024-02-21T12:40:11;100011.50;;;5.54;100.00
16148;BME280;8179;59.364;18.018;2024-02-21T12:42:40;100009.66;;;5.59;100.00
16148;BME280;8179;59.364;18.018;2024-02-21T12:45:07;100012.91;;;5.61;100.00
16148;BME280;8179;59.364;18.018;2024-02-21T12:47:34;100017.50;;;5.61;100.00
16148;BME280;8179;59.364;18.018;2024-02-21T12:50:02;100008.00;;;5.53;100.00
16148;BME280;8179;59.364;18.018;2024-02-21T12:52:32;100012.84;;;5.51;100.00
16148;BME280;8179;59.364;18.018;2024-02-21T12:54:59;100005.25;;;5.48;100.00